Terminal Aerodrome Forecast
Issued by NWS

Home | Current Version | Previous Version | Text Only | Print | Product List | Glossary On
Versions: 1 2 3 4 5 6 7 8 9 10 11 12 13 14 15 16 17 18 19 20 21 22
000
FTUS42 KJAX 212346
TAFCRG
TAF
KCRG 212346Z 2200/2224 07003KT P6SM SCT070 BKN150 BKN250
     FM220300 00000KT P6SM SCT150 SCT250
      TEMPO 2208/2212 5SM BR
     FM221300 15005KT P6SM SCT025
     FM221700 10010KT P6SM SCT040 SCT250=

USA.gov is the U.S. government's official web portal to all federal, state and local government web resources and services.